sensor_id;sensor_type;location;lat;lon;timestamp;temperature;humidity
51950;DHT22;37974;53.218;6.640;2023-03-22T00:01:50;9.70;99.90
51950;DHT22;37974;53.218;6.640;2023-03-22T00:04:18;9.70;99.90
51950;DHT22;37974;53.218;6.640;2023-03-22T00:06:44;9.70;99.90
51950;DHT22;37974;53.218;6.640;2023-03-22T00:09:10;9.70;99.90
51950;DHT22;37974;53.218;6.640;2023-03-22T00:11:43;9.70;99.90
51950;DHT22;37974;53.218;6.640;2023-03-22T00:14:09;9.70;99.90
51950;DHT22;37974;53.218;6.640;2023-03-22T00:16:38;9.70;99.90
51950;DHT22;37974;53.218;6.640;2023-03-22T00:19:03;9.70;99.90
51950;DHT22;37974;53.218;6.640;2023-03-22T00:21:38;9.30;99.90
51950;DHT22;37974;53.218;6.640;2023-03-22T00:24:07;9.70;99.90
51950;DHT22;37974;53.218;6.640;2023-03-22T00:26:34;9.70;99.90
51950;DHT22;37974;53.218;6.640;2023-03-22T00:29:36;9.60;99.90
51950;DHT22;37974;53.218;6.640;2023-03-22T00:32:02;9.90;99.90
51950;DHT22;37974;53.218;6.640;2023-03-22T00:34:43;9.60;99.90
51950;DHT22;37974;53.218;6.640;2023-03-22T00:37:21;9.50;99.90
51950;DHT22;37974;53.218;6.640;2023-03-22T00:39:46;9.60;99.90
51950;DHT22;37974;53.218;6.640;2023-03-22T00:42:18;9.50;99.90
51950;DHT22;37974;53.218;6.640;2023-03-22T00:44:53;9.50;99.90
51950;DHT22;37974;53.218;6.640;2023-03-22T00:47:21;9.50;99.90
51950;DHT22;37974;53.218;6.640;2023-03-22T00:49:48;9.50;99.90
51950;DHT22;37974;53.218;6.640;2023-03-22T00:52:13;9.50;99.90
51950;DHT22;37974;53.218;6.640;2023-03-22T00:54:39;9.50;99.90
51950;DHT22;37974;53.218;6.640;2023-03-22T00:57:05;9.40;99.90
51950;DHT22;37974;53.218;6.640;2023-03-22T00:59:34;9.60;99.90
51950;DHT22;37974;53.218;6.640;2023-03-22T01:02:10;9.40;99.90
51950;DHT22;37974;53.218;6.640;2023-03-22T01:04:47;9.20;99.90
51950;DHT22;37974;53.218;6.640;2023-03-22T01:07:16;9.40;99.90
51950;DHT22;37974;53.218;6.640;2023-03-22T01:09:46;9.40;99.90
51950;DHT22;37974;53.218;6.640;2023-03-22T01:12:21;9.40;99.90
51950;DHT22;37974;53.218;6.640;2023-03-22T01:14:47;9.40;99.90
51950;DHT22;37974;53.218;6.640;2023-03-22T01:17:13;9.40;99.90
51950;DHT22;37974;53.218;6.640;2023-03-22T01:19:44;9.40;99.90
51950;DHT22;37974;53.218;6.640;2023-03-22T01:22:16;9.30;99.90
51950;DHT22;37974;53.218;6.640;2023-03-22T01:24:42;9.30;99.90
51950;DHT22;37974;53.218;6.640;2023-03-22T01:27:08;9.30;99.90
51950;DHT22;37974;53.218;6.640;2023-03-22T01:29:33;9.30;99.90
51950;DHT22;37974;53.218;6.640;2023-03-22T01:32:00;9.60;99.90
51950;DHT22;37974;53.218;6.640;2023-03-22T01:34:28;9.20;99.90
51950;DHT22;37974;53.218;6.640;2023-03-22T01:37:06;9.20;99.90
51950;DHT22;37974;53.218;6.640;2023-03-22T01:39:38;9.30;99.90
51950;DHT22;37974;53.218;6.640;2023-03-22T01:42:04;9.20;99.90
51950;DHT22;37974;53.218;6.640;2023-03-22T01:44:30;9.30;99.90
51950;DHT22;37974;53.218;6.640;2023-03-22T01:46:56;9.20;99.90
51950;DHT22;37974;53.218;6.640;2023-03-22T01:49:26;9.20;99.90
51950;DHT22;37974;53.218;6.640;2023-03-22T01:51:55;9.20;99.90
51950;DHT22;37974;53.218;6.640;2023-03-22T01:56:58;9.20;99.90
51950;DHT22;37974;53.218;6.640;2023-03-22T01:59:24;9.20;99.90
51950;DHT22;37974;53.218;6.640;2023-03-22T02:01:50;9.20;99.90
51950;DHT22;37974;53.218;6.640;2023-03-22T02:04:19;9.20;99.90
51950;DHT22;37974;53.218;6.640;2023-03-22T02:06:45;9.20;99.90
51950;DHT22;37974;53.218;6.640;2023-03-22T02:09:18;9.20;99.90
51950;DHT22;37974;53.218;6.640;2023-03-22T02:11:57;9.20;99.90
51950;DHT22;37974;53.218;6.640;2023-03-22T02:17:58;9.10;99.90
51950;DHT22;37974;53.218;6.640;2023-03-22T02:20:40;9.10;99.90
51950;DHT22;37974;53.218;6.640;2023-03-22T02:25:50;9.10;99.90
51950;DHT22;37974;53.218;6.640;2023-03-22T02:28:22;9.10;99.90
51950;DHT22;37974;53.218;6.640;2023-03-22T02:36:54;9.10;99.90
51950;DHT22;37974;53.218;6.640;2023-03-22T02:39:41;9.10;99.90
51950;DHT22;37974;53.218;6.640;2023-03-22T02:44:45;9.10;99.90
51950;DHT22;37974;53.218;6.640;2023-03-22T02:47:27;9.10;99.90
51950;DHT22;37974;53.218;6.640;2023-03-22T02:52:36;9.10;99.90
51950;DHT22;37974;53.218;6.640;2023-03-22T02:57:40;9.10;99.90
51950;DHT22;37974;53.218;6.640;2023-03-22T03:00:10;9.10;99.90
51950;DHT22;37974;53.218;6.640;2023-03-22T03:02:43;9.10;99.90
51950;DHT22;37974;53.218;6.640;2023-03-22T03:05:11;9.20;99.90
51950;DHT22;37974;53.218;6.640;2023-03-22T03:07:38;9.20;99.90
51950;DHT22;37974;53.218;6.640;2023-03-22T03:10:06;9.10;99.90
51950;DHT22;37974;53.218;6.640;2023-03-22T03:12:32;9.20;99.90
51950;DHT22;37974;53.218;6.640;2023-03-22T03:14:58;9.20;99.90
51950;DHT22;37974;53.218;6.640;2023-03-22T03:17:48;9.20;99.90
51950;DHT22;37974;53.218;6.640;2023-03-22T03:20:34;9.20;99.90
51950;DHT22;37974;53.218;6.640;2023-03-22T03:23:25;9.20;99.90
51950;DHT22;37974;53.218;6.640;2023-03-22T03:28:35;9.20;99.90
51950;DHT22;37974;53.218;6.640;2023-03-22T03:31:17;9.20;99.90
51950;DHT22;37974;53.218;6.640;2023-03-22T03:33:54;9.10;99.90
51950;DHT22;37974;53.218;6.640;2023-03-22T03:36:22;9.20;99.90
51950;DHT22;37974;53.218;6.640;2023-03-22T03:38:51;9.20;99.90
51950;DHT22;37974;53.218;6.640;2023-03-22T03:41:23;9.20;99.90
51950;DHT22;37974;53.218;6.640;2023-03-22T03:43:50;9.20;99.90
51950;DHT22;37974;53.218;6.640;2023-03-22T03:46:17;9.20;99.90
51950;DHT22;37974;53.218;6.640;2023-03-22T03:48:46;9.20;99.90
51950;DHT22;37974;53.218;6.640;2023-03-22T03:51:15;9.20;99.90
51950;DHT22;37974;53.218;6.640;2023-03-22T03:53:41;9.20;99.90
51950;DHT22;37974;53.218;6.640;2023-03-22T03:56:07;9.20;99.90
51950;DHT22;37974;53.218;6.640;2023-03-22T03:58:33;9.20;99.90
51950;DHT22;37974;53.218;6.640;2023-03-22T04:00:59;9.20;99.90
51950;DHT22;37974;53.218;6.640;2023-03-22T04:03:25;9.20;99.90
51950;DHT22;37974;53.218;6.640;2023-03-22T04:05:50;9.20;99.90
51950;DHT22;37974;53.218;6.640;2023-03-22T04:08:16;9.20;99.90
51950;DHT22;37974;53.218;6.640;2023-03-22T04:10:42;9.20;99.90
51950;DHT22;37974;53.218;6.640;2023-03-22T04:13:08;9.20;99.90
51950;DHT22;37974;53.218;6.640;2023-03-22T04:15:34;9.20;99.90
51950;DHT22;37974;53.218;6.640;2023-03-22T04:18:00;9.20;99.90
51950;DHT22;37974;53.218;6.640;2023-03-22T04:20:26;9.20;99.90
51950;DHT22;37974;53.218;6.640;2023-03-22T04:22:51;9.20;99.90
51950;DHT22;37974;53.218;6.640;2023-03-22T04:25:18;9.20;99.90
51950;DHT22;37974;53.218;6.640;2023-03-22T04:27:45;9.20;99.90
51950;DHT22;37974;53.218;6.640;2023-03-22T04:30:32;9.20;99.90
51950;DHT22;37974;53.218;6.640;2023-03-22T04:33:17;9.20;99.90
51950;DHT22;37974;53.218;6.640;2023-03-22T04:35:46;9.10;99.90
51950;DHT22;37974;53.218;6.640;2023-03-22T04:38:20;9.10;99.90
51950;DHT22;37974;53.218;6.640;2023-03-22T04:40:49;9.20;99.90
51950;DHT22;37974;53.218;6.640;2023-03-22T04:43:17;9.10;99.90
51950;DHT22;37974;53.218;6.640;2023-03-22T04:45:46;9.20;99.90
51950;DHT22;37974;53.218;6.640;2023-03-22T04:48:13;8.90;99.90
51950;DHT22;37974;53.218;6.640;2023-03-22T04:50:45;9.20;99.90
51950;DHT22;37974;53.218;6.640;2023-03-22T04:53:13;9.20;99.90
51950;DHT22;37974;53.218;6.640;2023-03-22T04:55:39;9.30;99.90
51950;DHT22;37974;53.218;6.640;2023-03-22T04:58:05;9.30;99.90
51950;DHT22;37974;53.218;6.640;2023-03-22T05:00:34;9.30;99.90
51950;DHT22;37974;53.218;6.640;2023-03-22T05:03:11;9.30;99.90
51950;DHT22;37974;53.218;6.640;2023-03-22T05:05:39;9.10;99.90
51950;DHT22;37974;53.218;6.640;2023-03-22T05:08:13;9.40;99.90
51950;DHT22;37974;53.218;6.640;2023-03-22T05:10:40;9.40;99.90
51950;DHT22;37974;53.218;6.640;2023-03-22T05:13:09;9.40;99.90
51950;DHT22;37974;53.218;6.640;2023-03-22T05:15:44;9.30;99.90
51950;DHT22;37974;53.218;6.640;2023-03-22T05:18:23;9.40;99.90
51950;DHT22;37974;53.218;6.640;2023-03-22T05:20:56;9.30;99.90
51950;DHT22;37974;53.218;6.640;2023-03-22T05:23:26;9.40;99.90
51950;DHT22;37974;53.218;6.640;2023-03-22T05:25:52;9.40;99.90
51950;DHT22;37974;53.218;6.640;2023-03-22T05:28:19;9.50;99.90
51950;DHT22;37974;53.218;6.640;2023-03-22T05:30:51;9.50;99.90
51950;DHT22;37974;53.218;6.640;2023-03-22T05:33:20;9.50;99.90
51950;DHT22;37974;53.218;6.640;2023-03-22T05:35:51;9.50;99.90
51950;DHT22;37974;53.218;6.640;2023-03-22T05:38:23;9.50;99.90
51950;DHT22;37974;53.218;6.640;2023-03-22T05:40:52;9.40;99.90
51950;DHT22;37974;53.218;6.640;2023-03-22T05:43:18;9.50;99.90
51950;DHT22;37974;53.218;6.640;2023-03-22T05:45:44;9.50;99.90
51950;DHT22;37974;53.218;6.640;2023-03-22T05:48:10;9.50;99.90
51950;DHT22;37974;53.218;6.640;2023-03-22T05:50:40;9.50;99.90
51950;DHT22;37974;53.218;6.640;2023-03-22T05:53:15;9.50;99.90
51950;DHT22;37974;53.218;6.640;2023-03-22T05:55:50;9.90;99.90
51950;DHT22;37974;53.218;6.640;2023-03-22T05:58:23;9.50;99.90
51950;DHT22;37974;53.218;6.640;2023-03-22T06:01:04;9.50;99.90
51950;DHT22;37974;53.218;6.640;2023-03-22T06:03:31;9.50;99.90
51950;DHT22;37974;53.218;6.640;2023-03-22T06:06:04;9.50;99.90
51950;DHT22;37974;53.218;6.640;2023-03-22T06:08:32;9.50;99.90
51950;DHT22;37974;53.218;6.640;2023-03-22T06:11:05;9.60;99.90
51950;DHT22;37974;53.218;6.640;2023-03-22T06:13:40;9.60;99.90
51950;DHT22;37974;53.218;6.640;2023-03-22T06:16:12;9.60;99.90
51950;DHT22;37974;53.218;6.640;2023-03-22T06:18:38;9.70;99.90
51950;DHT22;37974;53.218;6.640;2023-03-22T06:21:07;9.70;99.90
51950;DHT22;37974;53.218;6.640;2023-03-22T06:23:34;9.70;99.90
51950;DHT22;37974;53.218;6.640;2023-03-22T06:26:00;9.70;99.90
51950;DHT22;37974;53.218;6.640;2023-03-22T06:28:26;9.70;99.90
51950;DHT22;37974;53.218;6.640;2023-03-22T06:31:06;9.80;99.90
51950;DHT22;37974;53.218;6.640;2023-03-22T06:33:33;9.80;99.90
51950;DHT22;37974;53.218;6.640;2023-03-22T06:36:05;9.90;99.90
51950;DHT22;37974;53.218;6.640;2023-03-22T06:38:37;9.40;99.90
51950;DHT22;37974;53.218;6.640;2023-03-22T06:41:12;9.90;99.90
51950;DHT22;37974;53.218;6.640;2023-03-22T06:43:38;9.90;99.90
51950;DHT22;37974;53.218;6.640;2023-03-22T06:46:04;9.90;99.90
51950;DHT22;37974;53.218;6.640;2023-03-22T06:48:30;10.00;99.90
51950;DHT22;37974;53.218;6.640;2023-03-22T06:50:55;9.90;99.90
51950;DHT22;37974;53.218;6.640;2023-03-22T06:53:21;9.90;99.90
51950;DHT22;37974;53.218;6.640;2023-03-22T06:55:47;10.00;99.90
51950;DHT22;37974;53.218;6.640;2023-03-22T06:58:13;10.00;99.90
51950;DHT22;37974;53.218;6.640;2023-03-22T07:00:38;10.00;99.90
51950;DHT22;37974;53.218;6.640;2023-03-22T07:03:04;10.10;99.90
51950;DHT22;37974;53.218;6.640;2023-03-22T07:05:30;10.10;99.90
51950;DHT22;37974;53.218;6.640;2023-03-22T07:07:56;10.10;99.90
51950;DHT22;37974;53.218;6.640;2023-03-22T07:10:22;10.20;99.90
51950;DHT22;37974;53.218;6.640;2023-03-22T07:12:47;10.40;99.90
51950;DHT22;37974;53.218;6.640;2023-03-22T07:15:13;10.50;99.90
51950;DHT22;37974;53.218;6.640;2023-03-22T07:17:41;10.60;99.90
51950;DHT22;37974;53.218;6.640;2023-03-22T07:20:08;10.60;99.90
51950;DHT22;37974;53.218;6.640;2023-03-22T07:22:34;10.60;99.90
51950;DHT22;37974;53.218;6.640;2023-03-22T07:24:59;10.60;99.90
51950;DHT22;37974;53.218;6.640;2023-03-22T07:27:25;10.60;99.90
51950;DHT22;37974;53.218;6.640;2023-03-22T07:29:51;10.60;99.90
51950;DHT22;37974;53.218;6.640;2023-03-22T07:32:17;10.60;99.90
51950;DHT22;37974;53.218;6.640;2023-03-22T07:34:42;10.60;99.90
51950;DHT22;37974;53.218;6.640;2023-03-22T07:37:08;10.60;99.90
51950;DHT22;37974;53.218;6.640;2023-03-22T07:39:37;10.70;99.90
51950;DHT22;37974;53.218;6.640;2023-03-22T07:42:06;10.60;99.90
51950;DHT22;37974;53.218;6.640;2023-03-22T07:44:32;10.60;99.90
51950;DHT22;37974;53.218;6.640;2023-03-22T07:46:57;10.60;99.90
51950;DHT22;37974;53.218;6.640;2023-03-22T07:49:23;10.50;99.90
51950;DHT22;37974;53.218;6.640;2023-03-22T07:51:58;10.50;99.90
51950;DHT22;37974;53.218;6.640;2023-03-22T07:54:33;10.50;99.90
51950;DHT22;37974;53.218;6.640;2023-03-22T07:57:00;10.50;99.90
51950;DHT22;37974;53.218;6.640;2023-03-22T07:59:29;10.40;99.90
51950;DHT22;37974;53.218;6.640;2023-03-22T08:02:03;10.50;99.90
51950;DHT22;37974;53.218;6.640;2023-03-22T08:04:35;10.40;99.90
51950;DHT22;37974;53.218;6.640;2023-03-22T08:07:13;10.10;99.90
51950;DHT22;37974;53.218;6.640;2023-03-22T08:09:40;10.60;99.90
51950;DHT22;37974;53.218;6.640;2023-03-22T08:12:05;10.70;99.90
51950;DHT22;37974;53.218;6.640;2023-03-22T08:14:31;10.90;99.90
51950;DHT22;37974;53.218;6.640;2023-03-22T08:16:59;11.00;99.90
51950;DHT22;37974;53.218;6.640;2023-03-22T08:19:43;11.10;99.90
51950;DHT22;37974;53.218;6.640;2023-03-22T08:22:12;11.10;99.90
51950;DHT22;37974;53.218;6.640;2023-03-22T08:24:42;11.10;99.90
51950;DHT22;37974;53.218;6.640;2023-03-22T08:27:14;11.00;99.90
51950;DHT22;37974;53.218;6.640;2023-03-22T08:29:40;11.00;99.90
51950;DHT22;37974;53.218;6.640;2023-03-22T08:32:06;11.00;99.90
51950;DHT22;37974;53.218;6.640;2023-03-22T08:34:36;11.00;99.90
51950;DHT22;37974;53.218;6.640;2023-03-22T08:37:15;11.00;99.90
51950;DHT22;37974;53.218;6.640;2023-03-22T08:39:53;11.60;99.90
51950;DHT22;37974;53.218;6.640;2023-03-22T08:42:22;11.10;99.90
51950;DHT22;37974;53.218;6.640;2023-03-22T08:44:48;11.10;99.90
51950;DHT22;37974;53.218;6.640;2023-03-22T08:47:16;11.20;99.90
51950;DHT22;37974;53.218;6.640;2023-03-22T08:49:42;11.20;99.90
51950;DHT22;37974;53.218;6.640;2023-03-22T08:52:11;11.30;99.90
51950;DHT22;37974;53.218;6.640;2023-03-22T08:54:46;11.40;99.90
51950;DHT22;37974;53.218;6.640;2023-03-22T08:57:20;11.40;99.90
51950;DHT22;37974;53.218;6.640;2023-03-22T08:59:53;11.40;99.90
51950;DHT22;37974;53.218;6.640;2023-03-22T09:02:21;11.40;99.90
51950;DHT22;37974;53.218;6.640;2023-03-22T09:04:53;11.50;99.90
51950;DHT22;37974;53.218;6.640;2023-03-22T09:07:26;11.60;99.90
51950;DHT22;37974;53.218;6.640;2023-03-22T09:09:55;11.70;99.90
51950;DHT22;37974;53.218;6.640;2023-03-22T09:12:20;11.80;99.90
51950;DHT22;37974;53.218;6.640;2023-03-22T09:14:55;11.90;99.90
51950;DHT22;37974;53.218;6.640;2023-03-22T09:17:24;11.80;99.90
51950;DHT22;37974;53.218;6.640;2023-03-22T09:19:53;11.80;99.90
51950;DHT22;37974;53.218;6.640;2023-03-22T09:22:19;11.70;99.90
51950;DHT22;37974;53.218;6.640;2023-03-22T09:24:44;11.60;99.90
51950;DHT22;37974;53.218;6.640;2023-03-22T09:27:10;11.40;99.90
51950;DHT22;37974;53.218;6.640;2023-03-22T09:29:45;11.50;99.90
51950;DHT22;37974;53.218;6.640;2023-03-22T09:32:11;11.60;99.90
51950;DHT22;37974;53.218;6.640;2023-03-22T09:34:37;11.60;99.90
51950;DHT22;37974;53.218;6.640;2023-03-22T09:37:03;11.60;99.90
51950;DHT22;37974;53.218;6.640;2023-03-22T09:39:28;11.60;99.90
51950;DHT22;37974;53.218;6.640;2023-03-22T09:41:57;11.70;99.90
51950;DHT22;37974;53.218;6.640;2023-03-22T09:44:44;11.60;99.90
51950;DHT22;37974;53.218;6.640;2023-03-22T09:47:16;11.60;99.90
51950;DHT22;37974;53.218;6.640;2023-03-22T09:49:46;11.60;99.90
51950;DHT22;37974;53.218;6.640;2023-03-22T09:52:16;11.70;99.90
51950;DHT22;37974;53.218;6.640;2023-03-22T09:54:44;11.70;99.90
51950;DHT22;37974;53.218;6.640;2023-03-22T09:57:21;11.60;99.90
51950;DHT22;37974;53.218;6.640;2023-03-22T10:00:07;11.50;99.90
51950;DHT22;37974;53.218;6.640;2023-03-22T10:02:45;11.50;99.90
51950;DHT22;37974;53.218;6.640;2023-03-22T10:10:26;11.20;99.90
51950;DHT22;37974;53.218;6.640;2023-03-22T10:12:57;11.20;99.90
51950;DHT22;37974;53.218;6.640;2023-03-22T10:15:32;11.10;99.90
51950;DHT22;37974;53.218;6.640;2023-03-22T10:18:02;11.10;99.90
51950;DHT22;37974;53.218;6.640;2023-03-22T10:20:37;11.00;99.90
51950;DHT22;37974;53.218;6.640;2023-03-22T10:23:09;10.90;99.90
51950;DHT22;37974;53.218;6.640;2023-03-22T10:25:39;10.90;99.90
51950;DHT22;37974;53.218;6.640;2023-03-22T10:28:16;10.90;99.90
51950;DHT22;37974;53.218;6.640;2023-03-22T10:30:43;10.80;99.90
51950;DHT22;37974;53.218;6.640;2023-03-22T10:33:15;10.80;99.90
51950;DHT22;37974;53.218;6.640;2023-03-22T10:35:44;10.80;99.90
51950;DHT22;37974;53.218;6.640;2023-03-22T10:38:18;10.80;99.90
51950;DHT22;37974;53.218;6.640;2023-03-22T10:40:46;10.70;99.90
51950;DHT22;37974;53.218;6.640;2023-03-22T10:43:21;10.70;99.90
51950;DHT22;37974;53.218;6.640;2023-03-22T10:45:50;10.60;99.90
51950;DHT22;37974;53.218;6.640;2023-03-22T10:48:30;10.50;99.90
51950;DHT22;37974;53.218;6.640;2023-03-22T10:50:58;10.50;99.90
51950;DHT22;37974;53.218;6.640;2023-03-22T10:53:27;10.50;99.90
51950;DHT22;37974;53.218;6.640;2023-03-22T10:55:53;10.40;99.90
51950;DHT22;37974;53.218;6.640;2023-03-22T10:58:22;10.60;99.90
51950;DHT22;37974;53.218;6.640;2023-03-22T11:00:56;10.40;99.90
51950;DHT22;37974;53.218;6.640;2023-03-22T11:08:46;10.40;99.90
51950;DHT22;37974;53.218;6.640;2023-03-22T11:11:22;10.40;99.90
51950;DHT22;37974;53.218;6.640;2023-03-22T11:14:11;10.40;99.90
51950;DHT22;37974;53.218;6.640;2023-03-22T11:16:41;10.40;99.90
51950;DHT22;37974;53.218;6.640;2023-03-22T11:19:15;10.40;99.90
51950;DHT22;37974;53.218;6.640;2023-03-22T11:21:41;10.40;99.90
51950;DHT22;37974;53.218;6.640;2023-03-22T11:24:12;10.50;99.90
51950;DHT22;37974;53.218;6.640;2023-03-22T11:27:03;10.50;99.90
51950;DHT22;37974;53.218;6.640;2023-03-22T11:29:53;10.50;99.90
51950;DHT22;37974;53.218;6.640;2023-03-22T11:32:35;10.50;99.90
51950;DHT22;37974;53.218;6.640;2023-03-22T11:35:29;10.60;99.90
51950;DHT22;37974;53.218;6.640;2023-03-22T11:37:56;10.20;99.90
51950;DHT22;37974;53.218;6.640;2023-03-22T11:40:28;10.50;99.90
51950;DHT22;37974;53.218;6.640;2023-03-22T11:43:19;10.50;99.90
51950;DHT22;37974;53.218;6.640;2023-03-22T11:45:48;10.60;99.90
51950;DHT22;37974;53.218;6.640;2023-03-22T11:48:17;10.60;99.90
51950;DHT22;37974;53.218;6.640;2023-03-22T11:51:24;10.60;99.90
51950;DHT22;37974;53.218;6.640;2023-03-22T11:54:01;10.70;99.90
51950;DHT22;37974;53.218;6.640;2023-03-22T11:56:44;10.70;99.90
51950;DHT22;37974;53.218;6.640;2023-03-22T11:59:14;10.60;99.90
51950;DHT22;37974;53.218;6.640;2023-03-22T12:02:17;10.60;99.90
51950;DHT22;37974;53.218;6.640;2023-03-22T12:04:47;10.60;99.90
51950;DHT22;37974;53.218;6.640;2023-03-22T12:07:17;10.60;99.90
51950;DHT22;37974;53.218;6.640;2023-03-22T12:09:57;10.60;99.90
51950;DHT22;37974;53.218;6.640;2023-03-22T12:12:30;10.60;99.90
51950;DHT22;37974;53.218;6.640;2023-03-22T12:15:05;10.60;99.90
51950;DHT22;37974;53.218;6.640;2023-03-22T12:17:39;10.60;99.90
51950;DHT22;37974;53.218;6.640;2023-03-22T12:20:47;10.60;99.90
51950;DHT22;37974;53.218;6.640;2023-03-22T12:23:23;10.50;99.90
51950;DHT22;37974;53.218;6.640;2023-03-22T12:25:55;10.50;99.90
51950;DHT22;37974;53.218;6.640;2023-03-22T12:28:27;10.30;99.90
51950;DHT22;37974;53.218;6.640;2023-03-22T12:30:58;10.50;99.90
51950;DHT22;37974;53.218;6.640;2023-03-22T12:33:40;10.50;99.90
51950;DHT22;37974;53.218;6.640;2023-03-22T12:36:20;10.50;99.90
51950;DHT22;37974;53.218;6.640;2023-03-22T12:38:53;10.60;99.90
51950;DHT22;37974;53.218;6.640;2023-03-22T12:41:36;10.60;99.90
51950;DHT22;37974;53.218;6.640;2023-03-22T12:44:16;10.60;99.90
51950;DHT22;37974;53.218;6.640;2023-03-22T12:47:24;10.50;99.90
51950;DHT22;37974;53.218;6.640;2023-03-22T12:50:12;10.20;99.90
51950;DHT22;37974;53.218;6.640;2023-03-22T12:52:51;10.50;99.90
51950;DHT22;37974;53.218;6.640;2023-03-22T12:57:56;10.50;99.90
51950;DHT22;37974;53.218;6.640;2023-03-22T13:00:35;10.50;99.90
51950;DHT22;37974;53.218;6.640;2023-03-22T13:05:46;10.40;99.90
51950;DHT22;37974;53.218;6.640;2023-03-22T13:08:20;10.40;99.90
51950;DHT22;37974;53.218;6.640;2023-03-22T13:10:58;10.40;99.90
51950;DHT22;37974;53.218;6.640;2023-03-22T13:16:18;10.40;99.90
51950;DHT22;37974;53.218;6.640;2023-03-22T13:21:21;10.40;99.90
51950;DHT22;37974;53.218;6.640;2023-03-22T13:24:21;10.40;99.90
51950;DHT22;37974;53.218;6.640;2023-03-22T13:27:05;10.40;99.90
51950;DHT22;37974;53.218;6.640;2023-03-22T13:29:51;10.30;99.90
51950;DHT22;37974;53.218;6.640;2023-03-22T13:33:13;10.40;99.90
51950;DHT22;37974;53.218;6.640;2023-03-22T13:44:39;10.40;99.90
51950;DHT22;37974;53.218;6.640;2023-03-22T13:50:39;10.10;99.90
51950;DHT22;37974;53.218;6.640;2023-03-22T13:53:33;10.30;99.90
51950;DHT22;37974;53.218;6.640;2023-03-22T13:56:12;10.40;99.90
51950;DHT22;37974;53.218;6.640;2023-03-22T14:09:34;10.20;99.90
51950;DHT22;37974;53.218;6.640;2023-03-22T14:12:23;10.20;99.90
51950;DHT22;37974;53.218;6.640;2023-03-22T14:15:15;10.20;99.90
51950;DHT22;37974;53.218;6.640;2023-03-22T14:17:45;10.20;99.90
51950;DHT22;37974;53.218;6.640;2023-03-22T14:20:17;10.20;99.90
51950;DHT22;37974;53.218;6.640;2023-03-22T14:22:50;10.20;99.90
51950;DHT22;37974;53.218;6.640;2023-03-22T14:25:20;10.20;99.90
51950;DHT22;37974;53.218;6.640;2023-03-22T14:27:47;10.20;99.90
51950;DHT22;37974;53.218;6.640;2023-03-22T14:30:40;10.20;99.90
51950;DHT22;37974;53.218;6.640;2023-03-22T14:33:16;10.20;99.90
51950;DHT22;37974;53.218;6.640;2023-03-22T14:35:56;10.20;99.90
51950;DHT22;37974;53.218;6.640;2023-03-22T14:38:46;10.30;99.90
51950;DHT22;37974;53.218;6.640;2023-03-22T14:41:26;10.20;99.90
51950;DHT22;37974;53.218;6.640;2023-03-22T14:43:56;10.30;99.90
51950;DHT22;37974;53.218;6.640;2023-03-22T14:46:33;10.20;99.90
51950;DHT22;37974;53.218;6.640;2023-03-22T14:49:01;10.30;99.90
51950;DHT22;37974;53.218;6.640;2023-03-22T14:51:35;10.30;99.90
51950;DHT22;37974;53.218;6.640;2023-03-22T14:54:22;10.30;99.90
51950;DHT22;37974;53.218;6.640;2023-03-22T14:56:51;10.30;99.90
51950;DHT22;37974;53.218;6.640;2023-03-22T14:59:23;10.30;99.90
51950;DHT22;37974;53.218;6.640;2023-03-22T15:01:56;10.30;99.90
51950;DHT22;37974;53.218;6.640;2023-03-22T15:04:45;10.30;99.90
51950;DHT22;37974;53.218;6.640;2023-03-22T15:07:10;10.40;99.90
51950;DHT22;37974;53.218;6.640;2023-03-22T15:09:39;10.30;99.90
51950;DHT22;37974;53.218;6.640;2023-03-22T15:12:11;10.30;99.90
51950;DHT22;37974;53.218;6.640;2023-03-22T15:14:47;10.40;99.90
51950;DHT22;37974;53.218;6.640;2023-03-22T15:17:14;10.40;99.90
51950;DHT22;37974;53.218;6.640;2023-03-22T15:19:49;10.40;99.90
51950;DHT22;37974;53.218;6.640;2023-03-22T15:22:18;10.40;99.90
51950;DHT22;37974;53.218;6.640;2023-03-22T15:24:51;10.40;99.90
51950;DHT22;37974;53.218;6.640;2023-03-22T15:27:18;10.40;99.90
51950;DHT22;37974;53.218;6.640;2023-03-22T15:29:45;10.40;99.90
51950;DHT22;37974;53.218;6.640;2023-03-22T15:32:32;10.40;99.90
51950;DHT22;37974;53.218;6.640;2023-03-22T15:35:03;10.40;99.90
51950;DHT22;37974;53.218;6.640;2023-03-22T15:37:32;10.40;99.90
51950;DHT22;37974;53.218;6.640;2023-03-22T15:39:59;10.40;99.90
51950;DHT22;37974;53.218;6.640;2023-03-22T15:42:30;10.40;99.90
51950;DHT22;37974;53.218;6.640;2023-03-22T15:45:02;10.40;99.90
51950;DHT22;37974;53.218;6.640;2023-03-22T15:47:43;10.40;99.90
51950;DHT22;37974;53.218;6.640;2023-03-22T15:50:09;10.40;99.90
51950;DHT22;37974;53.218;6.640;2023-03-22T15:52:36;10.40;99.90
51950;DHT22;37974;53.218;6.640;2023-03-22T15:55:13;10.40;99.90
51950;DHT22;37974;53.218;6.640;2023-03-22T15:57:53;10.40;99.90
51950;DHT22;37974;53.218;6.640;2023-03-22T16:00:22;10.50;99.90
51950;DHT22;37974;53.218;6.640;2023-03-22T16:02:57;10.40;99.90
51950;DHT22;37974;53.218;6.640;2023-03-22T16:05:25;10.50;99.90
51950;DHT22;37974;53.218;6.640;2023-03-22T16:07:52;10.50;99.90
51950;DHT22;37974;53.218;6.640;2023-03-22T16:10:24;10.50;99.90
51950;DHT22;37974;53.218;6.640;2023-03-22T16:12:50;10.50;99.90
51950;DHT22;37974;53.218;6.640;2023-03-22T16:15:19;10.50;99.90
51950;DHT22;37974;53.218;6.640;2023-03-22T16:17:48;10.50;99.90
51950;DHT22;37974;53.218;6.640;2023-03-22T16:20:15;10.50;99.90
51950;DHT22;37974;53.218;6.640;2023-03-22T16:22:44;10.40;99.90
51950;DHT22;37974;53.218;6.640;2023-03-22T16:25:16;10.40;99.90
51950;DHT22;37974;53.218;6.640;2023-03-22T16:27:42;10.40;99.90
51950;DHT22;37974;53.218;6.640;2023-03-22T16:30:14;10.40;99.90
51950;DHT22;37974;53.218;6.640;2023-03-22T16:32:42;10.40;99.90
51950;DHT22;37974;53.218;6.640;2023-03-22T16:35:21;10.50;99.90
51950;DHT22;37974;53.218;6.640;2023-03-22T16:38:03;10.50;99.90
51950;DHT22;37974;53.218;6.640;2023-03-22T16:40:28;10.50;99.90
51950;DHT22;37974;53.218;6.640;2023-03-22T16:42:56;10.40;99.90
51950;DHT22;37974;53.218;6.640;2023-03-22T16:45:30;10.40;99.90
51950;DHT22;37974;53.218;6.640;2023-03-22T16:47:59;10.50;99.90
51950;DHT22;37974;53.218;6.640;2023-03-22T16:50:43;10.50;99.90
51950;DHT22;37974;53.218;6.640;2023-03-22T16:53:14;10.50;99.90
51950;DHT22;37974;53.218;6.640;2023-03-22T16:55:41;10.50;99.90
51950;DHT22;37974;53.218;6.640;2023-03-22T16:58:22;10.40;99.90
51950;DHT22;37974;53.218;6.640;2023-03-22T17:00:48;10.40;99.90
51950;DHT22;37974;53.218;6.640;2023-03-22T17:03:17;10.50;99.90
51950;DHT22;37974;53.218;6.640;2023-03-22T17:05:45;10.40;99.90
51950;DHT22;37974;53.218;6.640;2023-03-22T17:08:17;10.50;99.90
51950;DHT22;37974;53.218;6.640;2023-03-22T17:10:44;10.40;99.90
51950;DHT22;37974;53.218;6.640;2023-03-22T17:13:12;10.50;99.90
51950;DHT22;37974;53.218;6.640;2023-03-22T17:15:43;10.40;99.90
51950;DHT22;37974;53.218;6.640;2023-03-22T17:18:10;10.40;99.90